createdAt,value
2018-10-01T00:00:20.662Z,5.72
2018-10-01T00:03:25.396Z,5.72
2018-10-01T00:06:30.067Z,5.71
2018-10-01T00:09:34.668Z,5.68
2018-10-01T00:12:39.351Z,5.60
2018-10-01T00:15:45.338Z,5.54
2018-10-01T00:18:49.976Z,5.56
2018-10-01T00:22:00.371Z,5.49
2018-10-01T00:25:05.254Z,5.45
2018-10-01T00:28:09.852Z,5.52
2018-10-01T00:31:14.513Z,5.38
2018-10-01T00:34:19.339Z,5.44
2018-10-01T00:37:23.869Z,5.31
2018-10-01T00:40:28.428Z,5.23
2018-10-01T00:43:33.159Z,5.13
2018-10-01T00:46:38.444Z,4.97
2018-10-01T00:49:43.143Z,5.06
2018-10-01T00:52:47.824Z,4.94
2018-10-01T00:55:52.499Z,4.96
2018-10-01T00:58:57.147Z,4.93
2018-10-01T01:02:01.849Z,4.90
2018-10-01T01:05:06.656Z,4.83
2018-10-01T01:08:11.251Z,4.81
2018-10-01T01:11:16.288Z,4.89
2018-10-01T01:14:20.876Z,4.80
2018-10-01T01:17:25.501Z,4.84
2018-10-01T01:20:30.236Z,4.93
2018-10-01T01:23:34.989Z,4.88
2018-10-01T01:26:39.773Z,4.83
2018-10-01T01:29:44.392Z,4.86
2018-10-01T01:32:48.845Z,4.84
2018-10-01T01:35:53.455Z,4.76
2018-10-01T01:38:57.943Z,4.81
2018-10-01T01:42:02.531Z,4.82
2018-10-01T01:45:07.092Z,4.80
2018-10-01T01:48:11.618Z,4.69
2018-10-01T01:51:16.875Z,4.77
2018-10-01T01:54:21.465Z,4.83
2018-10-01T01:57:26.049Z,4.88
2018-10-01T02:00:30.567Z,4.77
2018-10-01T02:03:35.197Z,4.76
2018-10-01T02:06:39.751Z,4.82
2018-10-01T02:09:44.367Z,4.74
2018-10-01T02:12:48.905Z,4.74
2018-10-01T02:15:53.563Z,4.73
2018-10-01T02:18:58.050Z,4.84
2018-10-01T02:22:02.709Z,4.88
2018-10-01T02:25:07.386Z,4.90
2018-10-01T02:28:11.875Z,4.83
2018-10-01T02:31:16.553Z,4.71
2018-10-01T02:34:21.153Z,4.64
2018-10-01T02:37:25.764Z,4.73
2018-10-01T02:40:30.305Z,4.66
2018-10-01T02:43:34.835Z,4.79
2018-10-01T02:46:39.378Z,4.72
2018-10-01T02:49:43.825Z,4.61
2018-10-01T02:52:53.430Z,4.60
2018-10-01T02:55:58.092Z,4.64
2018-10-01T02:59:02.600Z,4.51
2018-10-01T03:02:07.215Z,4.33
2018-10-01T03:05:11.707Z,4.37
2018-10-01T03:08:16.443Z,4.29
2018-10-01T03:11:20.970Z,4.54
2018-10-01T03:14:25.481Z,4.49
2018-10-01T03:17:30.175Z,4.40
2018-10-01T03:20:34.734Z,4.47
2018-10-01T03:23:39.209Z,4.52
2018-10-01T03:26:43.774Z,4.42
2018-10-01T03:29:48.334Z,4.55
2018-10-01T03:32:52.789Z,4.49
2018-10-01T03:35:57.384Z,4.56
2018-10-01T03:39:01.865Z,4.52
2018-10-01T03:42:06.021Z,4.59
2018-10-01T03:45:10.635Z,4.58
2018-10-01T03:48:15.142Z,4.59
2018-10-01T03:51:19.622Z,4.61
2018-10-01T03:54:24.171Z,4.60
2018-10-01T03:57:28.607Z,4.54
2018-10-01T04:00:33.090Z,4.74
2018-10-01T04:03:37.585Z,4.75
2018-10-01T04:06:42.163Z,4.72
2018-10-01T04:09:46.872Z,4.53
2018-10-01T04:12:51.348Z,4.58
2018-10-01T04:15:55.963Z,4.56
2018-10-01T04:19:00.548Z,4.51
2018-10-01T04:22:05.016Z,4.47
2018-10-01T04:25:11.416Z,4.42
2018-10-01T04:28:16.103Z,4.37
2018-10-01T04:31:20.555Z,4.48
2018-10-01T04:34:25.248Z,4.49
2018-10-01T04:37:29.738Z,4.48
2018-10-01T04:40:34.324Z,4.57
2018-10-01T04:43:38.833Z,4.50
2018-10-01T04:46:43.419Z,4.51
2018-10-01T04:49:47.930Z,4.50
2018-10-01T04:52:52.568Z,4.50
2018-10-01T04:55:57.296Z,4.58
2018-10-01T04:59:01.795Z,4.70
2018-10-01T05:02:06.263Z,4.61
2018-10-01T05:05:10.911Z,4.66
2018-10-01T05:08:15.724Z,4.56
2018-10-01T05:11:20.393Z,4.62
2018-10-01T05:14:24.877Z,4.47
2018-10-01T05:17:29.380Z,4.59
2018-10-01T05:20:33.875Z,4.56
2018-10-01T05:23:38.337Z,4.66
2018-10-01T05:26:42.877Z,4.61
2018-10-01T05:29:47.477Z,4.64
2018-10-01T05:32:51.904Z,4.70
2018-10-01T05:35:56.401Z,4.85
2018-10-01T05:39:00.905Z,4.88
2018-10-01T05:42:05.427Z,4.95
2018-10-01T05:45:09.981Z,5.11
2018-10-01T05:48:14.554Z,5.24
2018-10-01T05:51:19.055Z,5.27
2018-10-01T05:54:23.657Z,5.55
2018-10-01T05:57:28.131Z,5.76
2018-10-01T06:00:32.594Z,5.86
2018-10-01T06:03:37.035Z,5.92
2018-10-01T06:06:41.595Z,5.88
2018-10-01T06:09:46.136Z,6.05
2018-10-01T06:12:50.592Z,6.10
2018-10-01T06:15:55.185Z,6.13
2018-10-01T06:18:59.717Z,6.18
2018-10-01T06:22:04.503Z,6.31
2018-10-01T06:25:09.251Z,6.45
2018-10-01T06:28:13.957Z,6.56
2018-10-01T06:31:18.407Z,6.69
2018-10-01T06:34:22.955Z,6.54
2018-10-01T06:37:27.398Z,6.60
2018-10-01T06:40:31.941Z,6.65
2018-10-01T06:43:37.001Z,6.75
2018-10-01T06:46:41.592Z,6.96
2018-10-01T06:49:46.134Z,7.05
2018-10-01T06:52:50.683Z,7.06
2018-10-01T06:55:55.404Z,7.13
2018-10-01T06:58:59.995Z,7.05
2018-10-01T07:02:04.581Z,7.11
2018-10-01T07:05:09.088Z,7.08
2018-10-01T07:08:13.706Z,7.26
2018-10-01T07:11:18.520Z,7.22
2018-10-01T07:14:22.996Z,7.34
2018-10-01T07:17:27.786Z,7.43
2018-10-01T07:20:32.639Z,7.54
2018-10-01T07:23:37.241Z,7.80
2018-10-01T07:26:41.672Z,7.77
2018-10-01T07:29:46.237Z,7.92
2018-10-01T07:32:50.899Z,7.79
2018-10-01T07:35:55.644Z,7.90
2018-10-01T07:39:00.124Z,8.17
2018-10-01T07:42:04.809Z,8.49
2018-10-01T07:45:09.339Z,8.56
2018-10-01T07:48:13.828Z,8.52
2018-10-01T07:51:18.622Z,8.60
2018-10-01T07:54:23.240Z,8.69
2018-10-01T07:57:27.733Z,9.03
2018-10-01T08:00:32.359Z,9.20
2018-10-01T08:03:36.928Z,10.00
2018-10-01T08:06:41.461Z,10.39
2018-10-01T08:09:46.169Z,10.62
2018-10-01T08:12:51.613Z,10.95
2018-10-01T08:15:56.283Z,11.26
2018-10-01T08:19:00.776Z,11.27
2018-10-01T08:22:05.539Z,11.25
2018-10-01T08:25:10.098Z,11.49
2018-10-01T08:28:14.693Z,11.42
2018-10-01T08:31:19.272Z,11.62
2018-10-01T08:34:23.851Z,11.78
2018-10-01T08:37:28.727Z,11.74
2018-10-01T08:40:33.175Z,12.01
2018-10-01T08:43:37.732Z,12.03
2018-10-01T08:46:42.515Z,12.08
2018-10-01T08:49:56.295Z,12.24
2018-10-01T08:53:38.487Z,12.53
2018-10-01T08:56:42.993Z,12.42
2018-10-01T08:59:47.694Z,12.75
2018-10-01T09:02:52.198Z,12.54
2018-10-01T09:05:56.716Z,12.39
2018-10-01T09:09:01.432Z,12.43
2018-10-01T09:12:06.044Z,12.86
2018-10-01T09:15:10.840Z,13.41
2018-10-01T09:18:15.532Z,13.63
2018-10-01T09:21:20.288Z,13.39
2018-10-01T09:24:25.760Z,13.58
2018-10-01T09:27:30.584Z,13.74
2018-10-01T09:30:35.164Z,13.31
2018-10-01T09:33:39.722Z,12.92
2018-10-01T09:36:44.328Z,12.77
2018-10-01T09:39:48.943Z,13.07
2018-10-01T09:42:53.568Z,13.20
2018-10-01T09:45:58.548Z,13.21
2018-10-01T09:49:03.314Z,13.01
2018-10-01T09:52:08.015Z,12.91
2018-10-01T09:55:12.891Z,12.70
2018-10-01T09:58:17.633Z,12.90
2018-10-01T10:01:23.437Z,13.17
2018-10-01T10:04:28.024Z,13.32
2018-10-01T10:07:32.638Z,13.24
2018-10-01T10:10:37.177Z,13.38
2018-10-01T10:13:41.862Z,13.96
2018-10-01T10:16:46.645Z,13.55
2018-10-01T10:19:51.077Z,14.17
2018-10-01T10:22:55.747Z,14.47
2018-10-01T10:26:00.259Z,14.71
2018-10-01T10:29:04.838Z,15.14
2018-10-01T10:32:09.470Z,14.97
2018-10-01T10:35:13.997Z,15.12
2018-10-01T10:38:18.749Z,15.18
2018-10-01T10:41:23.376Z,14.33
2018-10-01T10:44:27.964Z,14.55
2018-10-01T10:47:32.794Z,14.31
2018-10-01T10:50:37.776Z,14.45
2018-10-01T10:53:42.443Z,14.25
2018-10-01T10:56:46.906Z,14.40
2018-10-01T10:59:51.498Z,14.51
2018-10-01T11:02:56.054Z,14.56
2018-10-01T11:06:01.060Z,14.69
2018-10-01T11:09:08.368Z,14.41
2018-10-01T11:12:12.818Z,14.00
2018-10-01T11:15:17.498Z,13.62
2018-10-01T11:18:21.858Z,13.15
2018-10-01T11:21:26.490Z,13.05
2018-10-01T11:24:30.908Z,13.26
2018-10-01T11:27:35.355Z,13.48
2018-10-01T11:30:39.878Z,13.49
2018-10-01T11:33:44.598Z,13.51
2018-10-01T11:36:49.117Z,13.63
2018-10-01T11:39:53.642Z,13.74
2018-10-01T11:42:58.178Z,13.42
2018-10-01T11:46:02.760Z,13.14
2018-10-01T11:49:07.911Z,12.96
2018-10-01T11:52:12.375Z,13.12
2018-10-01T11:55:16.892Z,13.67
2018-10-01T11:58:21.459Z,14.02
2018-10-01T12:01:26.053Z,14.23
2018-10-01T12:04:30.711Z,14.25
2018-10-01T12:07:35.340Z,14.00
2018-10-01T12:10:39.944Z,14.06
2018-10-01T12:13:44.523Z,13.68
2018-10-01T12:16:49.147Z,13.72
2018-10-01T12:19:53.676Z,14.14
2018-10-01T12:22:58.348Z,14.48
2018-10-01T12:26:02.885Z,14.45
2018-10-01T12:29:07.652Z,14.02
2018-10-01T12:32:13.248Z,13.94
2018-10-01T12:35:17.834Z,13.95
2018-10-01T12:38:22.314Z,13.73
2018-10-01T12:41:26.942Z,13.46
2018-10-01T12:44:31.529Z,14.18
2018-10-01T12:47:36.082Z,14.60
2018-10-01T12:50:41.054Z,14.71
2018-10-01T12:53:45.784Z,15.72
2018-10-01T12:56:50.536Z,15.91
2018-10-01T12:59:55.281Z,16.13
2018-10-01T13:03:00.167Z,15.70
2018-10-01T13:06:04.909Z,15.65
2018-10-01T13:09:12.022Z,15.37
2018-10-01T13:12:16.741Z,15.42
2018-10-01T13:15:21.333Z,15.25
2018-10-01T13:18:25.919Z,14.49
2018-10-01T13:21:30.677Z,14.37
2018-10-01T13:24:35.466Z,14.19
2018-10-01T13:27:40.229Z,14.05
2018-10-01T13:30:45.167Z,14.31
2018-10-01T13:33:49.671Z,14.17
2018-10-01T13:36:54.250Z,14.01
2018-10-01T13:39:58.946Z,14.23
2018-10-01T13:43:03.503Z,14.47
2018-10-01T13:46:08.262Z,15.18
2018-10-01T13:49:12.820Z,15.79
2018-10-01T13:52:18.051Z,16.10
2018-10-01T13:55:22.984Z,16.33
2018-10-01T13:58:29.088Z,16.78
2018-10-01T14:01:33.728Z,17.12
2018-10-01T14:04:38.391Z,17.28
2018-10-01T14:07:43.055Z,16.82
2018-10-01T14:10:47.647Z,16.77
2018-10-01T14:13:52.222Z,16.93
2018-10-01T14:16:56.787Z,16.44
2018-10-01T14:20:01.503Z,15.56
2018-10-01T14:23:05.896Z,14.73
2018-10-01T14:26:10.406Z,14.76
2018-10-01T14:29:14.917Z,14.78
2018-10-01T14:32:19.771Z,14.68
2018-10-01T14:35:24.377Z,14.75
2018-10-01T14:38:29.616Z,14.84
2018-10-01T14:41:34.206Z,14.78
2018-10-01T14:44:38.778Z,14.82
2018-10-01T14:47:43.263Z,14.86
2018-10-01T14:50:47.896Z,14.74
2018-10-01T14:53:52.367Z,14.61
2018-10-01T14:56:57.042Z,14.55
2018-10-01T15:00:01.707Z,14.58
2018-10-01T15:03:06.200Z,14.60
2018-10-01T15:06:10.655Z,14.55
2018-10-01T15:09:15.325Z,14.29
2018-10-01T15:12:19.983Z,14.38
2018-10-01T15:15:24.600Z,14.20
2018-10-01T15:18:29.191Z,13.88
2018-10-01T15:21:33.671Z,12.59
2018-10-01T15:24:38.227Z,11.55
2018-10-01T15:27:42.738Z,11.34
2018-10-01T15:30:47.246Z,11.35
2018-10-01T15:33:51.830Z,11.38
2018-10-01T15:36:56.368Z,11.34
2018-10-01T15:40:00.884Z,11.19
2018-10-01T15:43:05.446Z,11.17
2018-10-01T15:46:10.075Z,11.14
2018-10-01T15:49:14.564Z,11.17
2018-10-01T15:52:19.147Z,11.36
2018-10-01T15:55:23.673Z,11.32
2018-10-01T15:58:28.323Z,11.21
2018-10-01T16:01:33.160Z,11.19
2018-10-01T16:04:37.733Z,11.13
2018-10-01T16:07:42.219Z,11.15
2018-10-01T16:10:46.798Z,11.16
2018-10-01T16:13:51.311Z,11.18
2018-10-01T16:16:56.184Z,11.13
2018-10-01T16:20:00.726Z,11.07
2018-10-01T16:23:05.359Z,11.05
2018-10-01T16:26:09.854Z,11.28
2018-10-01T16:29:14.554Z,11.34
2018-10-01T16:32:19.055Z,11.22
2018-10-01T16:35:23.803Z,11.22
2018-10-01T16:38:28.299Z,11.23
2018-10-01T16:41:32.845Z,11.10
2018-10-01T16:44:37.335Z,11.08
2018-10-01T16:47:41.812Z,10.99
2018-10-01T16:50:46.315Z,11.01
2018-10-01T16:53:50.867Z,11.00
2018-10-01T16:56:55.383Z,10.90
2018-10-01T16:59:59.841Z,10.78
2018-10-01T17:03:04.428Z,10.75
2018-10-01T17:06:08.970Z,10.69
2018-10-01T17:09:13.544Z,10.73
2018-10-01T17:12:18.143Z,10.71
2018-10-01T17:15:22.748Z,10.79
2018-10-01T17:18:27.181Z,10.62
2018-10-01T17:21:31.981Z,10.72
2018-10-01T17:24:36.557Z,10.69
2018-10-01T17:27:41.101Z,10.54
2018-10-01T17:30:45.867Z,10.61
2018-10-01T17:33:50.608Z,10.48
2018-10-01T17:36:55.163Z,10.42
2018-10-01T17:39:59.722Z,10.42
2018-10-01T17:43:04.224Z,10.33
2018-10-01T17:46:08.763Z,10.31
2018-10-01T17:49:13.370Z,10.25
2018-10-01T17:52:18.189Z,10.17
2018-10-01T17:55:22.924Z,10.08
2018-10-01T17:58:27.401Z,10.08
2018-10-01T18:01:31.913Z,10.13
2018-10-01T18:04:36.518Z,10.18
2018-10-01T18:07:41.388Z,10.19
2018-10-01T18:10:46.019Z,10.25
2018-10-01T18:13:50.592Z,10.27
2018-10-01T18:16:55.162Z,10.17
2018-10-01T18:19:59.699Z,10.04
2018-10-01T18:23:04.251Z,9.96
2018-10-01T18:26:09.748Z,10.08
2018-10-01T18:29:14.223Z,10.14
2018-10-01T18:32:18.789Z,10.19
2018-10-01T18:35:23.554Z,10.27
2018-10-01T18:38:28.075Z,9.84
2018-10-01T18:41:32.683Z,9.68
2018-10-01T18:44:37.431Z,9.50
2018-10-01T18:47:42.038Z,9.40
2018-10-01T18:50:46.537Z,9.19
2018-10-01T18:53:51.036Z,9.13
2018-10-01T18:56:55.547Z,9.08
2018-10-01T19:00:00.581Z,9.03
2018-10-01T19:03:07.152Z,8.88
2018-10-01T19:06:12.028Z,8.80
2018-10-01T19:09:16.409Z,8.72
2018-10-01T19:12:20.945Z,8.64
2018-10-01T19:15:25.520Z,8.62
2018-10-01T19:18:30.024Z,8.36
2018-10-01T19:21:34.748Z,8.42
2018-10-01T19:24:39.303Z,8.40
2018-10-01T19:27:43.978Z,8.50
2018-10-01T19:30:48.611Z,8.49
2018-10-01T19:33:54.252Z,8.52
2018-10-01T19:36:59.003Z,8.55
2018-10-01T19:40:03.606Z,8.48
2018-10-01T19:43:08.098Z,8.32
2018-10-01T19:46:13.844Z,8.29
2018-10-01T19:49:18.584Z,8.36
2018-10-01T19:52:23.186Z,8.33
2018-10-01T19:55:27.740Z,8.35
2018-10-01T19:58:32.291Z,8.32
2018-10-01T20:01:36.888Z,8.31
2018-10-01T20:04:41.401Z,8.18
2018-10-01T20:07:46.098Z,8.25
2018-10-01T20:10:50.677Z,8.16
2018-10-01T20:13:55.222Z,8.12
2018-10-01T20:16:59.842Z,7.86
2018-10-01T20:20:04.809Z,7.48
2018-10-01T20:23:09.420Z,7.15
2018-10-01T20:26:14.057Z,7.02
2018-10-01T20:29:18.964Z,6.80
2018-10-01T20:32:23.215Z,6.68
2018-10-01T20:35:27.754Z,6.48
2018-10-01T20:38:32.475Z,6.31
2018-10-01T20:41:37.389Z,6.27
2018-10-01T20:44:44.799Z,6.25
2018-10-01T20:47:49.404Z,6.14
2018-10-01T20:50:53.778Z,6.29
2018-10-01T20:53:58.250Z,6.38
2018-10-01T20:57:03.694Z,6.40
2018-10-01T21:00:08.287Z,6.21
2018-10-01T21:03:12.881Z,6.28
2018-10-01T21:06:17.451Z,6.31
2018-10-01T21:09:22.055Z,6.06
2018-10-01T21:12:26.623Z,5.89
2018-10-01T21:15:31.209Z,5.86
2018-10-01T21:18:35.825Z,5.64
2018-10-01T21:21:40.395Z,5.75
2018-10-01T21:24:44.913Z,5.39
2018-10-01T21:27:49.411Z,5.32
2018-10-01T21:30:53.848Z,5.27
2018-10-01T21:33:58.355Z,5.12
2018-10-01T21:37:02.817Z,5.01
2018-10-01T21:40:11.312Z,4.82
2018-10-01T21:43:15.835Z,4.71
2018-10-01T21:46:20.320Z,4.56
2018-10-01T21:49:24.912Z,4.62
2018-10-01T21:52:30.483Z,4.80
2018-10-01T21:55:35.053Z,5.08
2018-10-01T21:58:39.531Z,5.00
2018-10-01T22:01:44.155Z,5.15
2018-10-01T22:04:48.692Z,5.30
2018-10-01T22:07:53.228Z,5.49
2018-10-01T22:10:57.775Z,5.50
2018-10-01T22:14:02.363Z,5.50
2018-10-01T22:17:07.024Z,5.38
2018-10-01T22:20:11.557Z,5.27
2018-10-01T22:23:16.925Z,5.19
2018-10-01T22:26:21.434Z,5.24
2018-10-01T22:29:26.522Z,5.20
2018-10-01T22:32:31.066Z,4.94
2018-10-01T22:35:35.595Z,5.20
2018-10-01T22:38:40.116Z,5.12
2018-10-01T22:41:44.703Z,5.14
2018-10-01T22:44:49.172Z,5.14
2018-10-01T22:47:53.775Z,5.17
2018-10-01T22:50:58.417Z,5.02
2018-10-01T22:54:03.366Z,4.86
2018-10-01T22:57:07.967Z,5.12
2018-10-01T23:00:12.403Z,4.99
2018-10-01T23:03:16.889Z,5.10
2018-10-01T23:06:21.382Z,5.12
2018-10-01T23:09:25.886Z,5.16
2018-10-01T23:12:30.615Z,5.09
2018-10-01T23:15:35.099Z,4.89
2018-10-01T23:18:39.717Z,4.84
2018-10-01T23:21:44.777Z,4.62
2018-10-01T23:24:49.298Z,4.53
2018-10-01T23:27:53.832Z,4.36
2018-10-01T23:30:58.453Z,4.18
2018-10-01T23:34:02.953Z,4.14
2018-10-01T23:37:07.501Z,4.13
2018-10-01T23:40:12.013Z,4.10
2018-10-01T23:43:16.436Z,4.05
2018-10-01T23:46:21.019Z,4.08
2018-10-01T23:49:25.502Z,3.99
2018-10-01T23:52:30.131Z,4.02
2018-10-01T23:55:34.578Z,4.06
2018-10-01T23:58:39.269Z,4.02
